Fish Lake Valley, Nevada Weather observations

Data are for 10 minute period ending at time listed.
 Day   Time    Ave.   Ave.  Ave.  Vector   Max.   Stn.    Total    Solar   Ave.  
  of    of     Air    Rel.  Wind   Wind    Wind   Baro.  Precip.   Rad.    Soil  
Year   Day     Temp.  Hum.  Speed  Dir.    Gust   Pres.                    Temp. 
2014   (PST)    F      %     mph   deg.    mph     mb.     in.     W/m2     F    
--------------------------------------------------------------------------------- 
 205    0:00   69.9    26    6.3   306     16.9   854.0    0.00       0    83.0  
 205    1:00   66.5    35    2.6   333     11.5   854.0    0.00       0    82.5  
 205    2:00   63.6    42    5.4   335     12.3   854.0    0.00       0    81.8  
 205    3:00   60.8    44    3.5   340      6.3   854.0    0.00       0    81.2  
 205    4:00   57.6    49    4.1     4      6.1   854.0    0.00       0    80.5  
 205    5:00   56.4    52    4.7   359     11.9   855.0    0.00       2    79.9  
 205    6:00   59.0    47    4.9   324      7.6   855.0    0.00      96    79.2  
 205    7:00   66.2    39    5.2   312     10.4   856.0    0.00     301    78.6  
 205    8:00   72.0    31    9.6   306     16.9   856.0    0.00     504    77.9  
 205    9:00   77.1    23   13.1   300     19.9   856.0    0.00     699    77.4  
 205   10:00   80.0    21   11.3   304     18.7   855.0    0.00     866    77.0  
 205   11:00   83.1    20    7.1   310     14.9   855.0    0.00     985    76.8  
 205   12:00   86.5    20    4.2   341     12.3   854.0    0.00    1044    77.0  
 205   13:00   89.5    16    3.0    14      7.3   853.0    0.00    1040    77.5  
 205   14:00   92.0    19    3.5    42      9.0   852.0    0.00     978    78.3  
 205   15:00   87.1    27    7.5   132     14.4   851.0    0.00     855    79.4  
 205   16:00   84.7    26    9.8   126     17.4   850.0    0.00     687    80.7  
 205   17:00   85.6    19   11.7   143     22.3   850.0    0.00     496    82.0  
 205   18:00   84.7    18   10.4   143     17.7   850.0    0.00     294    83.2  
 205   19:00   78.5    22    8.1   148     12.6   850.0    0.00      76    84.1  
 205   20:00   73.1    23    7.1   174     10.9   850.0    0.00       1    84.8  
 205   21:00   74.4    20    5.8   131     11.9   851.0    0.00       0    85.1  
 205   22:00   74.6    19    4.7   288     11.7   851.0    0.00       0    85.0  

Return to Fish Lake Valley, Nevada graphs page.


Western Regional Climate Center,wrcc@dri.edu